KAPC/APC METAR and TAF weather

Enter ICAO airport designator
Station Type Date Time Source
KAPC METAR 2022/12/08 13:26 UTC NOAA

KAPC 081326Z AUTO 36004KT 1 1/4SM BR OVC007 05/04 A3029 RMK AO2 T00500039


Station Type Date Time Source
KAPC Decoded METAR 2022/12/08 13:26 UTC NOAA

NAPA COUNTY AIRPORT, CA, United States (KAPC) 38-12N 122-17W 13M
Dec 08, 2022 - 08:26 AM EST / 2022.12.08 1326 UTC
Wind: from the N (360 degrees) at 5 MPH (4 KT):0
Visibility: 1 1/4 mile(s):0
Sky conditions: overcast
Weather: mist
Temperature: 41.0 F (5.0 C)
Dew Point: 39.0 F (3.9 C)
Relative Humidity: 92%
Pressure (altimeter): 30.29 in. Hg (1025 hPa)
ob: KAPC 081326Z AUTO 36004KT 1 1/4SM BR OVC007 05/04 A3029 RMK AO2 T00500039
cycle: 13

Station Type Date Time Source
KAPC TAF 2022/12/08 12:39 UTC NOAA

TAF KAPC 081136Z 0812/0912 13003KT 1/4SM FG VV001
FM081700 11010KT 5SM BR BKN008 BKN040 OVC130
FM082000 13010KT 5SM BR BKN009 BKN015 OVC050
FM082130 16012KT 3SM -RA BR BKN015 OVC040 WS020/19040KT
FM090130 18015KT 5SM RA BR BKN008 OVC010
FM090300 18015KT 6SM +RA BR BKN008 OVC012
FM090500 27010KT P6SM -SHRA BKN060
FM090800 VRB03KT P6SM BKN200

Example: see airport list